sensor_id;sensor_type;location;lat;lon;timestamp;pressure;altitude;pressure_sealevel;temperature;humidity
70343;BME280;57767;42.068;24.752;2023-07-28T00:00:30;98793.69;;;19.57;41.87
70343;BME280;57767;42.068;24.752;2023-07-28T00:01:32;98846.72;;;19.91;41.56
70343;BME280;57767;42.068;24.752;2023-07-28T00:02:34;98688.91;;;18.78;42.02
70343;BME280;57767;42.068;24.752;2023-07-28T00:03:36;98766.03;;;19.26;41.85
70343;BME280;57767;42.068;24.752;2023-07-28T00:04:38;98854.50;;;19.87;41.88
70343;BME280;57767;42.068;24.752;2023-07-28T00:05:40;98785.88;;;19.41;41.92
70343;BME280;57767;42.068;24.752;2023-07-28T00:06:42;98734.97;;;19.15;41.68
70343;BME280;57767;42.068;24.752;2023-07-28T00:07:44;98651.97;;;18.59;41.85
70343;BME280;57767;42.068;24.752;2023-07-28T00:08:46;98861.19;;;19.85;42.33
70343;BME280;57767;42.068;24.752;2023-07-28T00:09:47;98855.84;;;19.85;42.26
70343;BME280;57767;42.068;24.752;2023-07-28T00:10:49;98691.88;;;18.81;42.05
70343;BME280;57767;42.068;24.752;2023-07-28T00:11:51;98802.25;;;19.59;42.16
70343;BME280;57767;42.068;24.752;2023-07-28T00:12:53;98851.28;;;19.80;41.88
70343;BME280;57767;42.068;24.752;2023-07-28T00:13:55;98796.91;;;19.49;41.95
70343;BME280;57767;42.068;24.752;2023-07-28T00:14:57;98582.09;;;18.20;42.06
70343;BME280;57767;42.068;24.752;2023-07-28T00:16:00;98662.94;;;18.63;41.62
70343;BME280;57767;42.068;24.752;2023-07-28T00:17:02;98694.00;;;18.84;42.00
70343;BME280;57767;42.068;24.752;2023-07-28T00:18:04;98736.31;;;19.18;42.24
70343;BME280;57767;42.068;24.752;2023-07-28T00:19:06;98804.38;;;19.57;42.02
70343;BME280;57767;42.068;24.752;2023-07-28T00:20:08;98783.72;;;19.43;42.26
70343;BME280;57767;42.068;24.752;2023-07-28T00:21:10;98769.53;;;19.32;42.00
70343;BME280;57767;42.068;24.752;2023-07-28T00:22:12;98855.28;;;19.78;42.27
70343;BME280;57767;42.068;24.752;2023-07-28T00:23:14;98759.88;;;19.26;42.38
70343;BME280;57767;42.068;24.752;2023-07-28T00:24:16;98564.91;;;17.96;42.35
70343;BME280;57767;42.068;24.752;2023-07-28T00:25:18;98833.31;;;19.60;42.35
70343;BME280;57767;42.068;24.752;2023-07-28T00:26:20;98829.81;;;19.65;42.16
70343;BME280;57767;42.068;24.752;2023-07-28T00:27:22;98762.03;;;19.19;42.50
70343;BME280;57767;42.068;24.752;2023-07-28T00:28:24;98709.78;;;18.81;42.14
70343;BME280;57767;42.068;24.752;2023-07-28T00:29:25;98856.34;;;19.77;42.16
70343;BME280;57767;42.068;24.752;2023-07-28T00:30:27;98779.16;;;19.28;42.12
70343;BME280;57767;42.068;24.752;2023-07-28T00:31:29;98695.59;;;18.70;42.27
70343;BME280;57767;42.068;24.752;2023-07-28T00:32:31;98794.72;;;19.36;42.46
70343;BME280;57767;42.068;24.752;2023-07-28T00:33:33;98849.94;;;19.73;42.33
70343;BME280;57767;42.068;24.752;2023-07-28T00:34:35;98837.34;;;19.63;42.61
70343;BME280;57767;42.068;24.752;2023-07-28T00:35:37;98801.66;;;19.42;42.13
70343;BME280;57767;42.068;24.752;2023-07-28T00:36:38;98834.13;;;19.66;42.46
70343;BME280;57767;42.068;24.752;2023-07-28T00:37:40;98728.81;;;18.94;42.57
70343;BME280;57767;42.068;24.752;2023-07-28T00:38:42;98676.31;;;18.63;42.13
70343;BME280;57767;42.068;24.752;2023-07-28T00:39:44;98830.38;;;19.62;42.24
70343;BME280;57767;42.068;24.752;2023-07-28T00:40:46;98739.78;;;19.03;42.31
70343;BME280;57767;42.068;24.752;2023-07-28T00:41:48;98799.53;;;19.44;42.19
70343;BME280;57767;42.068;24.752;2023-07-28T00:42:50;98661.88;;;18.59;42.34
70343;BME280;57767;42.068;24.752;2023-07-28T00:43:52;98827.44;;;19.68;42.37
70343;BME280;57767;42.068;24.752;2023-07-28T00:44:53;98785.88;;;19.36;42.34
70343;BME280;57767;42.068;24.752;2023-07-28T00:45:55;98708.47;;;18.93;42.45
70343;BME280;57767;42.068;24.752;2023-07-28T00:46:57;98699.91;;;18.86;42.59
70343;BME280;57767;42.068;24.752;2023-07-28T00:48:00;98738.44;;;19.01;42.43
70343;BME280;57767;42.068;24.752;2023-07-28T00:49:02;98841.38;;;19.71;42.27
70343;BME280;57767;42.068;24.752;2023-07-28T00:50:06;98832.00;;;19.63;42.46
70343;BME280;57767;42.068;24.752;2023-07-28T00:51:09;98615.22;;;18.24;42.24
70343;BME280;57767;42.068;24.752;2023-07-28T00:52:11;98578.81;;;17.98;42.29
70343;BME280;57767;42.068;24.752;2023-07-28T00:53:13;98770.06;;;19.19;42.89
70343;BME280;57767;42.068;24.752;2023-07-28T00:54:15;98829.56;;;19.56;42.32
70343;BME280;57767;42.068;24.752;2023-07-28T00:55:18;98846.69;;;19.65;42.82
70343;BME280;57767;42.068;24.752;2023-07-28T00:56:20;98764.69;;;19.14;43.30
70343;BME280;57767;42.068;24.752;2023-07-28T00:57:23;98791.19;;;19.25;42.68
70343;BME280;57767;42.068;24.752;2023-07-28T00:58:24;98812.38;;;19.42;42.69
70343;BME280;57767;42.068;24.752;2023-07-28T00:59:27;98844.84;;;19.61;42.36
70343;BME280;57767;42.068;24.752;2023-07-28T01:00:29;98768.41;;;19.13;42.94
70343;BME280;57767;42.068;24.752;2023-07-28T01:01:31;98853.69;;;19.61;42.47
70343;BME280;57767;42.068;24.752;2023-07-28T01:02:33;98698.25;;;18.70;42.87
70343;BME280;57767;42.068;24.752;2023-07-28T01:03:35;98797.09;;;19.27;43.03
70343;BME280;57767;42.068;24.752;2023-07-28T01:04:37;98588.44;;;18.04;42.75
70343;BME280;57767;42.068;24.752;2023-07-28T01:07:43;98839.22;;;19.57;42.70
70343;BME280;57767;42.068;24.752;2023-07-28T01:09:18;98840.00;;;19.58;42.41
70343;BME280;57767;42.068;24.752;2023-07-28T01:10:28;98838.13;;;19.58;42.80
70343;BME280;57767;42.068;24.752;2023-07-28T01:11:31;98608.25;;;18.13;42.47
70343;BME280;57767;42.068;24.752;2023-07-28T01:12:33;98837.88;;;19.55;42.66
70343;BME280;57767;42.068;24.752;2023-07-28T01:13:35;98826.34;;;19.54;42.49
70343;BME280;57767;42.068;24.752;2023-07-28T01:14:37;98831.69;;;19.54;42.79
70343;BME280;57767;42.068;24.752;2023-07-28T01:15:39;98829.81;;;19.55;42.68
70343;BME280;57767;42.068;24.752;2023-07-28T01:16:41;98653.78;;;18.44;43.06
70343;BME280;57767;42.068;24.752;2023-07-28T01:17:42;98736.31;;;19.03;42.79
70343;BME280;57767;42.068;24.752;2023-07-28T01:18:44;98772.19;;;19.22;42.59
70343;BME280;57767;42.068;24.752;2023-07-28T01:19:46;98829.03;;;19.59;42.95
70343;BME280;57767;42.068;24.752;2023-07-28T01:20:50;98823.13;;;19.52;42.81
70343;BME280;57767;42.068;24.752;2023-07-28T01:23:53;98828.75;;;19.56;42.43
70343;BME280;57767;42.068;24.752;2023-07-28T01:25:06;98832.25;;;19.56;42.79
70343;BME280;57767;42.068;24.752;2023-07-28T01:26:10;98799.53;;;19.34;42.70
70343;BME280;57767;42.068;24.752;2023-07-28T01:27:13;98828.47;;;19.52;42.76
70343;BME280;57767;42.068;24.752;2023-07-28T01:28:18;98830.63;;;19.55;42.53
70343;BME280;57767;42.068;24.752;2023-07-28T01:29:21;98829.56;;;19.56;42.66
70343;BME280;57767;42.068;24.752;2023-07-28T01:30:23;98831.94;;;19.48;42.76
70343;BME280;57767;42.068;24.752;2023-07-28T01:31:27;98813.72;;;19.45;42.54
70343;BME280;57767;42.068;24.752;2023-07-28T01:32:29;98786.66;;;19.26;43.00
70343;BME280;57767;42.068;24.752;2023-07-28T01:33:32;98831.69;;;19.54;43.09
70343;BME280;57767;42.068;24.752;2023-07-28T01:34:34;98832.75;;;19.53;43.03
70343;BME280;57767;42.068;24.752;2023-07-28T01:35:36;98760.94;;;19.00;42.45
70343;BME280;57767;42.068;24.752;2023-07-28T01:36:41;98592.69;;;18.00;42.65
70343;BME280;57767;42.068;24.752;2023-07-28T01:37:43;98575.56;;;17.86;42.69
70343;BME280;57767;42.068;24.752;2023-07-28T01:38:45;98841.34;;;19.55;42.66
70343;BME280;57767;42.068;24.752;2023-07-28T01:39:46;98675.72;;;18.56;42.73
70343;BME280;57767;42.068;24.752;2023-07-28T01:40:48;98673.56;;;18.53;42.63
70343;BME280;57767;42.068;24.752;2023-07-28T01:41:50;98602.91;;;18.13;42.49
70343;BME280;57767;42.068;24.752;2023-07-28T01:42:52;98653.25;;;18.47;42.89
70343;BME280;57767;42.068;24.752;2023-07-28T01:43:54;98795.25;;;19.33;42.25
70343;BME280;57767;42.068;24.752;2023-07-28T01:44:57;98763.06;;;19.13;42.63
70343;BME280;57767;42.068;24.752;2023-07-28T01:45:59;98834.66;;;19.58;42.94
70343;BME280;57767;42.068;24.752;2023-07-28T01:47:01;98796.81;;;19.29;42.82
70343;BME280;57767;42.068;24.752;2023-07-28T01:48:03;98770.56;;;19.16;42.57
70343;BME280;57767;42.068;24.752;2023-07-28T01:49:05;98832.53;;;19.60;42.65
70343;BME280;57767;42.068;24.752;2023-07-28T01:50:07;98837.06;;;19.59;42.77
70343;BME280;57767;42.068;24.752;2023-07-28T01:51:09;98833.06;;;19.62;42.63
70343;BME280;57767;42.068;24.752;2023-07-28T01:52:10;98821.25;;;19.53;42.55
70343;BME280;57767;42.068;24.752;2023-07-28T01:53:12;98840.81;;;19.63;42.69
70343;BME280;57767;42.068;24.752;2023-07-28T01:54:14;98846.97;;;19.64;42.47
70343;BME280;57767;42.068;24.752;2023-07-28T01:55:16;98841.63;;;19.64;42.55
70343;BME280;57767;42.068;24.752;2023-07-28T01:56:18;98805.69;;;19.35;42.72
70343;BME280;57767;42.068;24.752;2023-07-28T01:57:20;98645.47;;;18.35;42.86
70343;BME280;57767;42.068;24.752;2023-07-28T01:58:22;98647.84;;;18.37;43.04
70343;BME280;57767;42.068;24.752;2023-07-28T01:59:24;98757.19;;;19.06;44.13
70343;BME280;57767;42.068;24.752;2023-07-28T02:00:26;98845.63;;;19.51;44.56
70343;BME280;57767;42.068;24.752;2023-07-28T02:01:29;98682.06;;;18.30;44.68
70343;BME280;57767;42.068;24.752;2023-07-28T02:02:31;98825.72;;;19.27;45.15
70343;BME280;57767;42.068;24.752;2023-07-28T02:03:33;98642.72;;;18.15;45.34
70343;BME280;57767;42.068;24.752;2023-07-28T02:04:35;98811.53;;;19.11;45.60
70343;BME280;57767;42.068;24.752;2023-07-28T02:05:37;98852.56;;;19.37;45.60
70343;BME280;57767;42.068;24.752;2023-07-28T02:06:38;98824.91;;;19.16;45.99
70343;BME280;57767;42.068;24.752;2023-07-28T02:07:41;98849.28;;;19.20;45.17
70343;BME280;57767;42.068;24.752;2023-07-28T02:08:43;98645.63;;;17.98;45.45
70343;BME280;57767;42.068;24.752;2023-07-28T02:09:45;98783.03;;;18.75;45.39
70343;BME280;57767;42.068;24.752;2023-07-28T02:10:47;98847.69;;;19.19;45.85
70343;BME280;57767;42.068;24.752;2023-07-28T02:11:49;98849.84;;;19.22;46.04
70343;BME280;57767;42.068;24.752;2023-07-28T02:12:50;98743.34;;;18.51;45.99
70343;BME280;57767;42.068;24.752;2023-07-28T02:13:53;98715.72;;;18.20;45.65
70343;BME280;57767;42.068;24.752;2023-07-28T02:14:55;98680.34;;;17.98;46.21
70343;BME280;57767;42.068;24.752;2023-07-28T02:15:57;98594.00;;;17.40;46.52
70343;BME280;57767;42.068;24.752;2023-07-28T02:16:59;98858.31;;;19.04;45.91
70343;BME280;57767;42.068;24.752;2023-07-28T02:18:00;98708.72;;;18.09;46.23
70343;BME280;57767;42.068;24.752;2023-07-28T02:19:02;98806.06;;;18.71;46.49
70343;BME280;57767;42.068;24.752;2023-07-28T02:20:05;98755.63;;;18.42;46.88
70343;BME280;57767;42.068;24.752;2023-07-28T02:21:10;98782.19;;;18.59;46.86
70343;BME280;57767;42.068;24.752;2023-07-28T02:22:11;98688.03;;;17.89;46.90
70343;BME280;57767;42.068;24.752;2023-07-28T02:23:13;98805.41;;;18.53;46.60
70343;BME280;57767;42.068;24.752;2023-07-28T02:24:15;98625.53;;;17.43;46.49
70343;BME280;57767;42.068;24.752;2023-07-28T02:25:17;98662.69;;;17.55;46.63
70343;BME280;57767;42.068;24.752;2023-07-28T02:26:19;98856.94;;;18.86;47.38
70343;BME280;57767;42.068;24.752;2023-07-28T02:27:20;98774.00;;;18.29;46.68
70343;BME280;57767;42.068;24.752;2023-07-28T02:28:22;98681.78;;;17.69;46.64
70343;BME280;57767;42.068;24.752;2023-07-28T02:29:24;98698.09;;;17.77;46.69
70343;BME280;57767;42.068;24.752;2023-07-28T02:30:26;98789.53;;;18.32;46.22
70343;BME280;57767;42.068;24.752;2023-07-28T02:31:28;98850.19;;;18.73;46.99
70343;BME280;57767;42.068;24.752;2023-07-28T02:32:30;98764.03;;;18.14;47.39
70343;BME280;57767;42.068;24.752;2023-07-28T02:33:32;98857.94;;;18.70;47.13
70343;BME280;57767;42.068;24.752;2023-07-28T02:34:37;98593.53;;;17.06;46.76
70343;BME280;57767;42.068;24.752;2023-07-28T02:35:38;98867.56;;;18.71;47.23
70343;BME280;57767;42.068;24.752;2023-07-28T02:36:40;98651.09;;;17.39;47.81
70343;BME280;57767;42.068;24.752;2023-07-28T02:37:42;98854.41;;;18.64;47.73
70343;BME280;57767;42.068;24.752;2023-07-28T02:38:44;98615.94;;;17.10;47.72
70343;BME280;57767;42.068;24.752;2023-07-28T02:39:46;98667.63;;;17.36;47.81
70343;BME280;57767;42.068;24.752;2023-07-28T02:40:49;98850.66;;;18.60;47.44
70343;BME280;57767;42.068;24.752;2023-07-28T02:41:51;98854.41;;;18.59;47.69
70343;BME280;57767;42.068;24.752;2023-07-28T02:42:52;98771.47;;;18.07;47.35
70343;BME280;57767;42.068;24.752;2023-07-28T02:43:54;98667.94;;;17.40;47.33
70343;BME280;57767;42.068;24.752;2023-07-28T02:44:56;98790.78;;;18.19;48.70
70343;BME280;57767;42.068;24.752;2023-07-28T02:45:58;98838.00;;;18.45;48.42
70343;BME280;57767;42.068;24.752;2023-07-28T02:47:00;98712.72;;;17.65;48.09
70343;BME280;57767;42.068;24.752;2023-07-28T02:48:02;98860.19;;;18.51;48.04
70343;BME280;57767;42.068;24.752;2023-07-28T02:49:04;98852.16;;;18.51;48.67
70343;BME280;57767;42.068;24.752;2023-07-28T02:50:06;98833.66;;;18.34;48.62
70343;BME280;57767;42.068;24.752;2023-07-28T02:51:07;98810.84;;;18.21;49.16
70343;BME280;57767;42.068;24.752;2023-07-28T02:52:09;98798.97;;;18.02;49.71
70343;BME280;57767;42.068;24.752;2023-07-28T02:53:11;98856.69;;;18.45;49.25
70343;BME280;57767;42.068;24.752;2023-07-28T02:54:13;98660.84;;;17.18;49.01
70343;BME280;57767;42.068;24.752;2023-07-28T02:55:15;98869.22;;;18.40;48.96
70343;BME280;57767;42.068;24.752;2023-07-28T02:56:17;98711.19;;;17.42;48.99
70343;BME280;57767;42.068;24.752;2023-07-28T02:57:19;98871.34;;;18.38;49.93
70343;BME280;57767;42.068;24.752;2023-07-28T02:58:20;98709.31;;;17.42;50.17
70343;BME280;57767;42.068;24.752;2023-07-28T02:59:22;98860.09;;;18.31;50.16
70343;BME280;57767;42.068;24.752;2023-07-28T03:00:27;98852.25;;;18.19;50.08
70343;BME280;57767;42.068;24.752;2023-07-28T03:01:30;98850.41;;;18.24;49.62
70343;BME280;57767;42.068;24.752;2023-07-28T03:02:34;98780.59;;;17.74;49.45
70343;BME280;57767;42.068;24.752;2023-07-28T03:03:36;98784.34;;;17.73;49.79
70343;BME280;57767;42.068;24.752;2023-07-28T03:04:38;98744.06;;;17.47;49.74
70343;BME280;57767;42.068;24.752;2023-07-28T03:05:40;98591.66;;;16.48;49.69
70343;BME280;57767;42.068;24.752;2023-07-28T03:06:42;98824.31;;;17.95;48.89
70343;BME280;57767;42.068;24.752;2023-07-28T03:07:47;98852.19;;;18.09;48.18
70343;BME280;57767;42.068;24.752;2023-07-28T03:08:49;98856.69;;;18.03;48.37
70343;BME280;57767;42.068;24.752;2023-07-28T03:09:51;98780.72;;;17.57;48.14
70343;BME280;57767;42.068;24.752;2023-07-28T03:10:57;98769.16;;;17.46;48.51
70343;BME280;57767;42.068;24.752;2023-07-28T03:11:59;98670.34;;;16.77;49.09
70343;BME280;57767;42.068;24.752;2023-07-28T03:13:00;98651.53;;;16.62;48.41
70343;BME280;57767;42.068;24.752;2023-07-28T03:14:02;98866.00;;;18.01;48.58
70343;BME280;57767;42.068;24.752;2023-07-28T03:15:04;98644.56;;;16.61;48.66
70343;BME280;57767;42.068;24.752;2023-07-28T03:16:06;98857.84;;;17.80;48.65
70343;BME280;57767;42.068;24.752;2023-07-28T03:17:08;98635.25;;;16.37;48.65
70343;BME280;57767;42.068;24.752;2023-07-28T03:18:10;98595.91;;;16.22;49.21
70343;BME280;57767;42.068;24.752;2023-07-28T03:19:12;98656.66;;;16.47;49.50
70343;BME280;57767;42.068;24.752;2023-07-28T03:20:14;98791.25;;;17.42;49.15
70343;BME280;57767;42.068;24.752;2023-07-28T03:21:16;98707.22;;;16.86;49.47
70343;BME280;57767;42.068;24.752;2023-07-28T03:22:18;98501.44;;;15.54;49.16
70343;BME280;57767;42.068;24.752;2023-07-28T03:23:20;98832.91;;;17.70;49.28
70343;BME280;57767;42.068;24.752;2023-07-28T03:24:22;98644.84;;;16.38;49.05
70343;BME280;57767;42.068;24.752;2023-07-28T03:25:23;98763.59;;;17.21;49.44
70343;BME280;57767;42.068;24.752;2023-07-28T03:26:25;98677.56;;;16.55;50.15
70343;BME280;57767;42.068;24.752;2023-07-28T03:27:27;98691.63;;;16.72;49.75
70343;BME280;57767;42.068;24.752;2023-07-28T03:28:29;98687.84;;;16.68;49.66
70343;BME280;57767;42.068;24.752;2023-07-28T03:29:31;98882.19;;;17.84;49.71
70343;BME280;57767;42.068;24.752;2023-07-28T03:30:33;98833.81;;;17.53;49.87
70343;BME280;57767;42.068;24.752;2023-07-28T03:31:35;98594.91;;;16.01;49.58
70343;BME280;57767;42.068;24.752;2023-07-28T03:32:37;98687.72;;;16.58;50.47
70343;BME280;57767;42.068;24.752;2023-07-28T03:33:39;98883.19;;;17.78;50.06
70343;BME280;57767;42.068;24.752;2023-07-28T03:34:41;98808.56;;;17.34;49.41
70343;BME280;57767;42.068;24.752;2023-07-28T03:35:43;98717.13;;;16.63;49.99
70343;BME280;57767;42.068;24.752;2023-07-28T03:36:45;98846.97;;;17.33;50.79
70343;BME280;57767;42.068;24.752;2023-07-28T03:37:47;98856.06;;;17.37;51.69
70343;BME280;57767;42.068;24.752;2023-07-28T03:38:49;98893.69;;;17.63;50.73
70343;BME280;57767;42.068;24.752;2023-07-28T03:39:51;98476.00;;;14.81;50.97
70343;BME280;57767;42.068;24.752;2023-07-28T03:40:53;98920.63;;;17.61;50.17
70343;BME280;57767;42.068;24.752;2023-07-28T03:41:55;98803.84;;;16.93;50.24
70343;BME280;57767;42.068;24.752;2023-07-28T03:42:57;98895.03;;;17.38;50.85
70343;BME280;57767;42.068;24.752;2023-07-28T03:43:59;98652.91;;;15.77;51.37
70343;BME280;57767;42.068;24.752;2023-07-28T03:45:01;98902.06;;;17.44;49.91
70343;BME280;57767;42.068;24.752;2023-07-28T03:46:02;98674.91;;;15.90;50.52
70343;BME280;57767;42.068;24.752;2023-07-28T03:47:05;98886.06;;;17.23;51.20
70343;BME280;57767;42.068;24.752;2023-07-28T03:48:09;98876.41;;;17.16;51.56
70343;BME280;57767;42.068;24.752;2023-07-28T03:49:11;98900.47;;;17.22;51.78
70343;BME280;57767;42.068;24.752;2023-07-28T03:50:13;98633.22;;;15.57;51.20
70343;BME280;57767;42.068;24.752;2023-07-28T03:51:15;98907.53;;;17.33;51.66
70343;BME280;57767;42.068;24.752;2023-07-28T03:52:16;98722.44;;;16.20;50.84
70343;BME280;57767;42.068;24.752;2023-07-28T03:53:18;98703.25;;;16.18;52.03
70343;BME280;57767;42.068;24.752;2023-07-28T03:54:20;98711.34;;;16.28;52.67
70343;BME280;57767;42.068;24.752;2023-07-28T03:55:23;98756.41;;;16.73;52.92
70343;BME280;57767;42.068;24.752;2023-07-28T03:56:25;98642.72;;;16.13;52.29
70343;BME280;57767;42.068;24.752;2023-07-28T03:57:29;98680.53;;;16.37;51.59
70343;BME280;57767;42.068;24.752;2023-07-28T03:58:31;98912.78;;;18.03;50.89
70343;BME280;57767;42.068;24.752;2023-07-28T03:59:33;98711.94;;;16.78;50.52
70343;BME280;57767;42.068;24.752;2023-07-28T04:00:35;98914.28;;;18.21;49.71
70343;BME280;57767;42.068;24.752;2023-07-28T04:01:37;98838.09;;;17.86;50.08
70343;BME280;57767;42.068;24.752;2023-07-28T04:02:39;98773.50;;;17.58;49.92
70343;BME280;57767;42.068;24.752;2023-07-28T04:03:41;98910.44;;;18.44;50.60
70343;BME280;57767;42.068;24.752;2023-07-28T04:04:43;98842.94;;;18.21;49.97
70343;BME280;57767;42.068;24.752;2023-07-28T04:05:44;98722.53;;;17.59;49.91
70343;BME280;57767;42.068;24.752;2023-07-28T04:06:48;98772.53;;;18.06;49.77
70343;BME280;57767;42.068;24.752;2023-07-28T04:07:55;98747.41;;;18.02;48.87
70343;BME280;57767;42.068;24.752;2023-07-28T04:08:57;98896.31;;;19.01;48.51
70343;BME280;57767;42.068;24.752;2023-07-28T04:09:58;98902.56;;;19.21;49.02
70343;BME280;57767;42.068;24.752;2023-07-28T04:11:00;98787.28;;;18.66;48.38
70343;BME280;57767;42.068;24.752;2023-07-28T04:12:02;98943.94;;;19.61;48.23
70343;BME280;57767;42.068;24.752;2023-07-28T04:13:04;98847.69;;;19.29;48.26
70343;BME280;57767;42.068;24.752;2023-07-28T04:14:07;98731.16;;;18.71;47.94
70343;BME280;57767;42.068;24.752;2023-07-28T04:15:10;98688.25;;;18.40;48.00
70343;BME280;57767;42.068;24.752;2023-07-28T04:16:11;98846.72;;;19.60;46.82
70343;BME280;57767;42.068;24.752;2023-07-28T04:17:13;98773.81;;;19.23;45.81
70343;BME280;57767;42.068;24.752;2023-07-28T04:18:15;98804.63;;;19.51;46.84
70343;BME280;57767;42.068;24.752;2023-07-28T04:19:17;98672.59;;;18.69;44.24
70343;BME280;57767;42.068;24.752;2023-07-28T04:20:19;98728.28;;;19.03;45.46
70343;BME280;57767;42.068;24.752;2023-07-28T04:21:21;98878.91;;;20.01;46.70
70343;BME280;57767;42.068;24.752;2023-07-28T04:22:23;98919.09;;;20.42;46.69
70343;BME280;57767;42.068;24.752;2023-07-28T04:23:25;98893.59;;;20.29;46.64
70343;BME280;57767;42.068;24.752;2023-07-28T04:24:27;98694.03;;;19.15;44.50
70343;BME280;57767;42.068;24.752;2023-07-28T04:25:29;98882.63;;;20.25;45.39
70343;BME280;57767;42.068;24.752;2023-07-28T04:26:31;98752.44;;;19.68;46.44
70343;BME280;57767;42.068;24.752;2023-07-28T04:27:33;98932.94;;;20.99;48.40
70343;BME280;57767;42.068;24.752;2023-07-28T04:28:35;98737.69;;;19.86;47.71
70343;BME280;57767;42.068;24.752;2023-07-28T04:29:37;98877.09;;;20.91;45.82
70343;BME280;57767;42.068;24.752;2023-07-28T04:30:39;98721.81;;;20.10;45.49
70343;BME280;57767;42.068;24.752;2023-07-28T04:31:41;98935.34;;;21.65;44.78
70343;BME280;57767;42.068;24.752;2023-07-28T04:32:43;98746.59;;;20.56;43.50
70343;BME280;57767;42.068;24.752;2023-07-28T04:33:44;98897.84;;;21.45;41.38
70343;BME280;57767;42.068;24.752;2023-07-28T04:34:46;98911.25;;;21.50;44.10
70343;BME280;57767;42.068;24.752;2023-07-28T04:35:48;98924.03;;;21.68;44.40
70343;BME280;57767;42.068;24.752;2023-07-28T04:36:50;98933.78;;;21.93;41.79
70343;BME280;57767;42.068;24.752;2023-07-28T04:37:52;98690.34;;;20.41;40.61
70343;BME280;57767;42.068;24.752;2023-07-28T04:38:54;98864.78;;;21.50;42.40
70343;BME280;57767;42.068;24.752;2023-07-28T04:39:56;98708.16;;;20.66;41.91
70343;BME280;57767;42.068;24.752;2023-07-28T04:40:58;98938.81;;;22.10;40.54
70343;BME280;57767;42.068;24.752;2023-07-28T04:42:00;98908.19;;;22.06;41.40
70343;BME280;57767;42.068;24.752;2023-07-28T04:43:02;98846.31;;;21.77;41.23
70343;BME280;57767;42.068;24.752;2023-07-28T04:44:04;98869.72;;;22.10;41.79
70343;BME280;57767;42.068;24.752;2023-07-28T04:45:06;98666.66;;;20.97;40.74
70343;BME280;57767;42.068;24.752;2023-07-28T04:46:08;98929.91;;;22.77;39.97
70343;BME280;57767;42.068;24.752;2023-07-28T04:47:10;98849.56;;;22.37;40.07
70343;BME280;57767;42.068;24.752;2023-07-28T04:48:12;98764.22;;;21.90;39.30
70343;BME280;57767;42.068;24.752;2023-07-28T04:49:14;98920.16;;;23.05;41.27
70343;BME280;57767;42.068;24.752;2023-07-28T04:50:16;98762.00;;;22.26;40.61
70343;BME280;57767;42.068;24.752;2023-07-28T04:51:18;98919.13;;;23.44;39.31
70343;BME280;57767;42.068;24.752;2023-07-28T04:52:20;98885.25;;;23.38;37.89
70343;BME280;57767;42.068;24.752;2023-07-28T04:53:23;98901.53;;;23.70;38.16
70343;BME280;57767;42.068;24.752;2023-07-28T04:54:25;98870.94;;;23.61;39.64
70343;BME280;57767;42.068;24.752;2023-07-28T04:55:27;98698.53;;;22.86;38.08
70343;BME280;57767;42.068;24.752;2023-07-28T04:56:29;98714.38;;;23.06;35.60
70343;BME280;57767;42.068;24.752;2023-07-28T04:57:31;98765.03;;;23.42;36.88
70343;BME280;57767;42.068;24.752;2023-07-28T04:58:33;98905.31;;;24.39;38.34
70343;BME280;57767;42.068;24.752;2023-07-28T04:59:35;98950.84;;;24.73;38.55
70343;BME280;57767;42.068;24.752;2023-07-28T05:00:37;98721.59;;;23.43;37.30
70343;BME280;57767;42.068;24.752;2023-07-28T05:01:39;98934.06;;;24.90;38.83
70343;BME280;57767;42.068;24.752;2023-07-28T05:02:43;98826.63;;;24.32;36.72
70343;BME280;57767;42.068;24.752;2023-07-28T05:03:45;98785.50;;;24.08;35.95
70343;BME280;57767;42.068;24.752;2023-07-28T05:04:47;98933.19;;;25.08;37.82
70343;BME280;57767;42.068;24.752;2023-07-28T05:05:50;98777.72;;;24.20;36.94
70343;BME280;57767;42.068;24.752;2023-07-28T05:06:52;98862.16;;;24.80;36.56
70343;BME280;57767;42.068;24.752;2023-07-28T05:07:54;98927.09;;;25.30;34.69
70343;BME280;57767;42.068;24.752;2023-07-28T05:08:56;98747.97;;;24.25;34.76
70343;BME280;57767;42.068;24.752;2023-07-28T05:09:58;98948.97;;;25.69;35.62
70343;BME280;57767;42.068;24.752;2023-07-28T05:11:00;98938.41;;;25.82;35.06
70343;BME280;57767;42.068;24.752;2023-07-28T05:12:02;98684.00;;;24.39;34.29
70343;BME280;57767;42.068;24.752;2023-07-28T05:13:04;98948.75;;;26.24;33.76
70343;BME280;57767;42.068;24.752;2023-07-28T05:14:06;98825.69;;;25.55;34.16
70343;BME280;57767;42.068;24.752;2023-07-28T05:15:10;98942.78;;;26.36;34.28
70343;BME280;57767;42.068;24.752;2023-07-28T05:16:12;98727.09;;;25.08;34.16
70343;BME280;57767;42.068;24.752;2023-07-28T05:17:14;98779.13;;;25.58;34.24
70343;BME280;57767;42.068;24.752;2023-07-28T05:18:19;98943.34;;;26.77;32.66
70343;BME280;57767;42.068;24.752;2023-07-28T05:19:21;98833.16;;;26.25;34.14
70343;BME280;57767;42.068;24.752;2023-07-28T05:20:23;98786.00;;;26.17;33.21
70343;BME280;57767;42.068;24.752;2023-07-28T05:21:25;98670.59;;;25.51;33.67
70343;BME280;57767;42.068;24.752;2023-07-28T05:22:27;98954.28;;;27.34;31.79
70343;BME280;57767;42.068;24.752;2023-07-28T05:23:29;98905.22;;;27.05;32.57
70343;BME280;57767;42.068;24.752;2023-07-28T05:24:31;98784.28;;;26.21;31.95
70343;BME280;57767;42.068;24.752;2023-07-28T05:25:34;98749.53;;;26.15;31.23
70343;BME280;57767;42.068;24.752;2023-07-28T05:26:36;98951.44;;;27.48;31.19
70343;BME280;57767;42.068;24.752;2023-07-28T05:27:38;98749.66;;;26.10;32.10
70343;BME280;57767;42.068;24.752;2023-07-28T05:28:40;98825.06;;;26.56;29.79
70343;BME280;57767;42.068;24.752;2023-07-28T05:29:42;98772.59;;;26.12;30.07